sensor_id;sensor_type;location;lat;lon;timestamp;P1;durP1;ratioP1;P2;durP2;ratioP2
40367;SDS011;26075;43.320;21.920;2022-07-17T00:02:03;5.28;;;3.42;;
40367;SDS011;26075;43.320;21.920;2022-07-17T00:07:05;7.65;;;3.47;;
40367;SDS011;26075;43.320;21.920;2022-07-17T00:12:06;8.05;;;3.53;;
40367;SDS011;26075;43.320;21.920;2022-07-17T00:17:07;4.80;;;3.10;;
40367;SDS011;26075;43.320;21.920;2022-07-17T00:22:08;6.15;;;3.47;;
40367;SDS011;26075;43.320;21.920;2022-07-17T00:27:10;7.03;;;3.65;;
40367;SDS011;26075;43.320;21.920;2022-07-17T00:32:11;8.20;;;3.40;;
40367;SDS011;26075;43.320;21.920;2022-07-17T00:37:12;5.15;;;3.55;;
40367;SDS011;26075;43.320;21.920;2022-07-17T00:42:13;5.80;;;3.10;;
40367;SDS011;26075;43.320;21.920;2022-07-17T00:47:15;9.65;;;3.03;;
40367;SDS011;26075;43.320;21.920;2022-07-17T00:52:16;7.85;;;3.20;;
40367;SDS011;26075;43.320;21.920;2022-07-17T01:03:05;4.90;;;2.80;;
40367;SDS011;26075;43.320;21.920;2022-07-17T01:08:06;4.85;;;3.22;;
40367;SDS011;26075;43.320;21.920;2022-07-17T01:13:07;4.88;;;3.05;;
40367;SDS011;26075;43.320;21.920;2022-07-17T01:18:10;7.53;;;3.08;;
40367;SDS011;26075;43.320;21.920;2022-07-17T01:23:12;5.88;;;3.45;;
40367;SDS011;26075;43.320;21.920;2022-07-17T01:28:13;5.30;;;3.30;;
40367;SDS011;26075;43.320;21.920;2022-07-17T01:33:14;5.70;;;2.90;;
40367;SDS011;26075;43.320;21.920;2022-07-17T01:44:12;4.78;;;2.72;;
40367;SDS011;26075;43.320;21.920;2022-07-17T01:49:13;4.50;;;3.03;;
40367;SDS011;26075;43.320;21.920;2022-07-17T01:54:14;6.22;;;3.28;;
40367;SDS011;26075;43.320;21.920;2022-07-17T02:05:03;5.95;;;3.25;;
40367;SDS011;26075;43.320;21.920;2022-07-17T02:10:05;4.57;;;2.83;;
40367;SDS011;26075;43.320;21.920;2022-07-17T02:15:06;6.70;;;3.47;;
40367;SDS011;26075;43.320;21.920;2022-07-17T02:20:07;5.60;;;3.40;;
40367;SDS011;26075;43.320;21.920;2022-07-17T02:25:09;5.25;;;3.38;;
40367;SDS011;26075;43.320;21.920;2022-07-17T02:30:14;4.78;;;3.10;;
40367;SDS011;26075;43.320;21.920;2022-07-17T02:35:16;3.97;;;2.92;;
40367;SDS011;26075;43.320;21.920;2022-07-17T02:40:17;4.82;;;3.45;;
40367;SDS011;26075;43.320;21.920;2022-07-17T02:45:18;6.03;;;3.70;;
40367;SDS011;26075;43.320;21.920;2022-07-17T02:50:24;4.75;;;2.75;;
40367;SDS011;26075;43.320;21.920;2022-07-17T03:00:49;5.72;;;2.78;;
40367;SDS011;26075;43.320;21.920;2022-07-17T03:05:50;6.20;;;3.33;;
40367;SDS011;26075;43.320;21.920;2022-07-17T03:11:04;5.20;;;2.53;;
40367;SDS011;26075;43.320;21.920;2022-07-17T03:16:05;5.63;;;2.88;;
40367;SDS011;26075;43.320;21.920;2022-07-17T03:21:06;4.32;;;2.20;;
40367;SDS011;26075;43.320;21.920;2022-07-17T03:26:07;4.55;;;2.70;;
40367;SDS011;26075;43.320;21.920;2022-07-17T03:31:09;4.03;;;2.72;;
40367;SDS011;26075;43.320;21.920;2022-07-17T03:36:09;4.65;;;2.95;;
40367;SDS011;26075;43.320;21.920;2022-07-17T03:41:10;5.72;;;2.45;;
40367;SDS011;26075;43.320;21.920;2022-07-17T03:46:12;6.32;;;3.40;;
40367;SDS011;26075;43.320;21.920;2022-07-17T03:51:13;4.10;;;3.13;;
40367;SDS011;26075;43.320;21.920;2022-07-17T03:56:14;6.05;;;3.42;;
40367;SDS011;26075;43.320;21.920;2022-07-17T04:01:15;8.13;;;3.95;;
40367;SDS011;26075;43.320;21.920;2022-07-17T04:06:16;7.47;;;3.88;;
40367;SDS011;26075;43.320;21.920;2022-07-17T04:16:55;7.75;;;4.85;;
40367;SDS011;26075;43.320;21.920;2022-07-17T04:21:56;6.88;;;4.32;;
40367;SDS011;26075;43.320;21.920;2022-07-17T04:26:57;6.60;;;3.60;;
40367;SDS011;26075;43.320;21.920;2022-07-17T04:31:58;6.97;;;4.38;;
40367;SDS011;26075;43.320;21.920;2022-07-17T04:36:59;6.10;;;3.40;;
40367;SDS011;26075;43.320;21.920;2022-07-17T04:42:00;6.47;;;4.07;;
40367;SDS011;26075;43.320;21.920;2022-07-17T04:47:01;6.50;;;4.00;;
40367;SDS011;26075;43.320;21.920;2022-07-17T04:52:02;6.22;;;3.85;;
40367;SDS011;26075;43.320;21.920;2022-07-17T05:08:10;5.68;;;3.40;;
40367;SDS011;26075;43.320;21.920;2022-07-17T05:18:49;7.60;;;3.80;;
40367;SDS011;26075;43.320;21.920;2022-07-17T05:29:47;7.95;;;4.18;;
40367;SDS011;26075;43.320;21.920;2022-07-17T05:34:48;11.18;;;4.43;;
40367;SDS011;26075;43.320;21.920;2022-07-17T05:39:49;6.53;;;3.70;;
40367;SDS011;26075;43.320;21.920;2022-07-17T05:44:50;5.25;;;3.70;;
40367;SDS011;26075;43.320;21.920;2022-07-17T05:49:51;6.07;;;3.75;;
40367;SDS011;26075;43.320;21.920;2022-07-17T05:54:52;4.90;;;3.78;;
40367;SDS011;26075;43.320;21.920;2022-07-17T05:59:53;6.63;;;4.35;;
40367;SDS011;26075;43.320;21.920;2022-07-17T06:04:54;4.68;;;3.90;;
40367;SDS011;26075;43.320;21.920;2022-07-17T06:09:55;8.43;;;3.92;;
40367;SDS011;26075;43.320;21.920;2022-07-17T06:20:35;7.45;;;4.05;;
40367;SDS011;26075;43.320;21.920;2022-07-17T06:25:36;13.88;;;4.10;;
40367;SDS011;26075;43.320;21.920;2022-07-17T06:30:37;6.85;;;3.83;;
40367;SDS011;26075;43.320;21.920;2022-07-17T06:35:38;7.60;;;4.18;;
40367;SDS011;26075;43.320;21.920;2022-07-17T06:40:39;5.22;;;4.00;;
40367;SDS011;26075;43.320;21.920;2022-07-17T06:51:26;5.10;;;3.60;;
40367;SDS011;26075;43.320;21.920;2022-07-17T06:56:27;4.93;;;3.47;;
40367;SDS011;26075;43.320;21.920;2022-07-17T07:01:28;6.28;;;4.35;;
40367;SDS011;26075;43.320;21.920;2022-07-17T07:06:29;5.88;;;4.20;;
40367;SDS011;26075;43.320;21.920;2022-07-17T07:11:30;5.93;;;3.90;;
40367;SDS011;26075;43.320;21.920;2022-07-17T07:16:31;6.88;;;4.07;;
40367;SDS011;26075;43.320;21.920;2022-07-17T07:21:33;11.52;;;4.68;;
40367;SDS011;26075;43.320;21.920;2022-07-17T07:32:12;8.75;;;3.83;;
40367;SDS011;26075;43.320;21.920;2022-07-17T07:43:10;7.07;;;3.53;;
40367;SDS011;26075;43.320;21.920;2022-07-17T07:48:11;6.15;;;3.55;;
40367;SDS011;26075;43.320;21.920;2022-07-17T07:53:12;6.30;;;3.42;;
40367;SDS011;26075;43.320;21.920;2022-07-17T07:58:13;8.77;;;4.10;;
40367;SDS011;26075;43.320;21.920;2022-07-17T08:08:18;9.20;;;4.20;;
40367;SDS011;26075;43.320;21.920;2022-07-17T08:13:19;7.00;;;4.47;;
40367;SDS011;26075;43.320;21.920;2022-07-17T08:24:17;6.72;;;4.00;;
40367;SDS011;26075;43.320;21.920;2022-07-17T08:29:18;5.57;;;3.78;;
40367;SDS011;26075;43.320;21.920;2022-07-17T08:34:19;6.85;;;3.95;;
40367;SDS011;26075;43.320;21.920;2022-07-17T08:39:20;7.03;;;4.22;;
40367;SDS011;26075;43.320;21.920;2022-07-17T08:44:21;6.53;;;3.67;;
40367;SDS011;26075;43.320;21.920;2022-07-17T08:49:22;7.57;;;4.28;;
40367;SDS011;26075;43.320;21.920;2022-07-17T08:54:23;7.57;;;3.92;;
40367;SDS011;26075;43.320;21.920;2022-07-17T08:59:24;5.35;;;3.80;;
40367;SDS011;26075;43.320;21.920;2022-07-17T09:10:04;5.35;;;3.17;;
40367;SDS011;26075;43.320;21.920;2022-07-17T09:15:18;9.35;;;4.80;;
40367;SDS011;26075;43.320;21.920;2022-07-17T09:20:20;6.13;;;4.13;;
40367;SDS011;26075;43.320;21.920;2022-07-17T09:31:27;7.75;;;3.65;;
40367;SDS011;26075;43.320;21.920;2022-07-17T09:36:28;5.85;;;3.13;;
40367;SDS011;26075;43.320;21.920;2022-07-17T09:41:29;7.10;;;4.50;;
40367;SDS011;26075;43.320;21.920;2022-07-17T09:46:34;6.93;;;3.15;;
40367;SDS011;26075;43.320;21.920;2022-07-17T09:51:39;9.23;;;3.97;;
40367;SDS011;26075;43.320;21.920;2022-07-17T09:56:40;9.95;;;4.53;;
40367;SDS011;26075;43.320;21.920;2022-07-17T10:01:42;7.38;;;3.72;;
40367;SDS011;26075;43.320;21.920;2022-07-17T10:12:42;5.63;;;3.47;;
40367;SDS011;26075;43.320;21.920;2022-07-17T10:17:44;7.50;;;3.08;;
40367;SDS011;26075;43.320;21.920;2022-07-17T10:22:45;9.30;;;4.88;;
40367;SDS011;26075;43.320;21.920;2022-07-17T10:27:48;6.47;;;3.67;;
40367;SDS011;26075;43.320;21.920;2022-07-17T10:33:07;9.73;;;3.80;;
40367;SDS011;26075;43.320;21.920;2022-07-17T10:38:09;4.97;;;3.30;;
40367;SDS011;26075;43.320;21.920;2022-07-17T10:49:10;5.00;;;3.00;;
40367;SDS011;26075;43.320;21.920;2022-07-17T10:59:42;6.07;;;3.33;;
40367;SDS011;26075;43.320;21.920;2022-07-17T11:04:43;7.75;;;3.80;;
40367;SDS011;26075;43.320;21.920;2022-07-17T11:09:47;8.57;;;4.35;;
40367;SDS011;26075;43.320;21.920;2022-07-17T11:15:04;13.80;;;3.92;;
40367;SDS011;26075;43.320;21.920;2022-07-17T11:20:05;5.00;;;2.65;;
40367;SDS011;26075;43.320;21.920;2022-07-17T11:31:05;5.70;;;3.33;;
40367;SDS011;26075;43.320;21.920;2022-07-17T11:41:30;7.07;;;2.78;;
40367;SDS011;26075;43.320;21.920;2022-07-17T11:46:32;6.68;;;4.47;;
40367;SDS011;26075;43.320;21.920;2022-07-17T11:51:37;5.43;;;2.65;;
40367;SDS011;26075;43.320;21.920;2022-07-17T11:56:39;7.60;;;2.80;;
40367;SDS011;26075;43.320;21.920;2022-07-17T12:01:41;7.38;;;2.95;;
40367;SDS011;26075;43.320;21.920;2022-07-17T12:06:43;9.00;;;3.80;;
40367;SDS011;26075;43.320;21.920;2022-07-17T12:17:24;8.35;;;3.17;;
40367;SDS011;26075;43.320;21.920;2022-07-17T12:22:25;8.35;;;4.97;;
40367;SDS011;26075;43.320;21.920;2022-07-17T12:27:28;9.38;;;3.33;;
40367;SDS011;26075;43.320;21.920;2022-07-17T12:32:29;5.75;;;3.10;;
40367;SDS011;26075;43.320;21.920;2022-07-17T12:37:42;5.60;;;3.20;;
40367;SDS011;26075;43.320;21.920;2022-07-17T12:42:43;5.35;;;3.13;;
40367;SDS011;26075;43.320;21.920;2022-07-17T12:47:44;8.10;;;3.03;;
40367;SDS011;26075;43.320;21.920;2022-07-17T12:52:45;7.68;;;3.60;;
40367;SDS011;26075;43.320;21.920;2022-07-17T12:57:48;6.20;;;3.15;;
40367;SDS011;26075;43.320;21.920;2022-07-17T13:03:08;7.03;;;3.35;;
40367;SDS011;26075;43.320;21.920;2022-07-17T13:14:06;5.88;;;2.70;;
40367;SDS011;26075;43.320;21.920;2022-07-17T13:30:05;6.30;;;2.67;;
40367;SDS011;26075;43.320;21.920;2022-07-17T13:35:07;8.65;;;2.40;;
40367;SDS011;26075;43.320;21.920;2022-07-17T13:40:08;4.00;;;2.10;;
40367;SDS011;26075;43.320;21.920;2022-07-17T13:45:15;4.88;;;2.28;;
40367;SDS011;26075;43.320;21.920;2022-07-17T13:50:16;3.47;;;2.25;;
40367;SDS011;26075;43.320;21.920;2022-07-17T14:00:54;5.50;;;2.33;;
40367;SDS011;26075;43.320;21.920;2022-07-17T14:05:55;9.27;;;2.60;;
40367;SDS011;26075;43.320;21.920;2022-07-17T14:10:57;7.97;;;2.47;;
40367;SDS011;26075;43.320;21.920;2022-07-17T14:15:58;5.85;;;2.10;;
40367;SDS011;26075;43.320;21.920;2022-07-17T14:20:59;5.10;;;2.20;;
40367;SDS011;26075;43.320;21.920;2022-07-17T14:26:00;5.13;;;2.45;;
40367;SDS011;26075;43.320;21.920;2022-07-17T14:36:58;4.80;;;2.40;;
40367;SDS011;26075;43.320;21.920;2022-07-17T14:42:05;4.90;;;2.30;;
40367;SDS011;26075;43.320;21.920;2022-07-17T14:47:06;3.78;;;1.92;;
40367;SDS011;26075;43.320;21.920;2022-07-17T14:52:07;5.47;;;1.90;;
40367;SDS011;26075;43.320;21.920;2022-07-17T14:57:09;5.20;;;1.95;;
40367;SDS011;26075;43.320;21.920;2022-07-17T15:08:07;4.82;;;2.20;;
40367;SDS011;26075;43.320;21.920;2022-07-17T15:13:08;5.25;;;2.20;;
40367;SDS011;26075;43.320;21.920;2022-07-17T15:18:09;5.82;;;2.17;;
40367;SDS011;26075;43.320;21.920;2022-07-17T15:23:10;6.13;;;2.20;;
40367;SDS011;26075;43.320;21.920;2022-07-17T15:28:11;3.47;;;2.15;;
40367;SDS011;26075;43.320;21.920;2022-07-17T15:33:12;5.40;;;1.73;;
40367;SDS011;26075;43.320;21.920;2022-07-17T15:38:13;4.68;;;2.25;;
40367;SDS011;26075;43.320;21.920;2022-07-17T15:43:14;4.28;;;2.25;;
40367;SDS011;26075;43.320;21.920;2022-07-17T15:48:15;5.38;;;1.98;;
40367;SDS011;26075;43.320;21.920;2022-07-17T15:58:36;4.68;;;2.15;;
40367;SDS011;26075;43.320;21.920;2022-07-17T16:03:37;6.07;;;2.47;;
40367;SDS011;26075;43.320;21.920;2022-07-17T16:08:38;5.15;;;2.08;;
40367;SDS011;26075;43.320;21.920;2022-07-17T16:19:14;11.60;;;6.40;;
40367;SDS011;26075;43.320;21.920;2022-07-17T16:24:27;3.72;;;2.20;;
40367;SDS011;26075;43.320;21.920;2022-07-17T16:29:28;3.83;;;2.42;;
40367;SDS011;26075;43.320;21.920;2022-07-17T16:34:29;5.25;;;2.42;;
40367;SDS011;26075;43.320;21.920;2022-07-17T16:39:30;5.00;;;2.35;;
40367;SDS011;26075;43.320;21.920;2022-07-17T16:44:32;4.82;;;2.35;;
40367;SDS011;26075;43.320;21.920;2022-07-17T16:49:33;5.57;;;2.22;;
40367;SDS011;26075;43.320;21.920;2022-07-17T16:54:42;3.72;;;2.25;;
40367;SDS011;26075;43.320;21.920;2022-07-17T16:59:43;7.63;;;2.08;;
40367;SDS011;26075;43.320;21.920;2022-07-17T17:04:44;5.07;;;2.58;;
40367;SDS011;26075;43.320;21.920;2022-07-17T17:09:45;6.10;;;2.63;;
40367;SDS011;26075;43.320;21.920;2022-07-17T17:14:46;10.30;;;2.47;;
40367;SDS011;26075;43.320;21.920;2022-07-17T17:19:47;6.60;;;2.75;;
40367;SDS011;26075;43.320;21.920;2022-07-17T17:30:26;5.28;;;2.20;;
40367;SDS011;26075;43.320;21.920;2022-07-17T17:35:28;4.97;;;2.40;;
40367;SDS011;26075;43.320;21.920;2022-07-17T17:46:11;4.75;;;2.70;;
40367;SDS011;26075;43.320;21.920;2022-07-17T17:56:51;8.15;;;2.50;;
40367;SDS011;26075;43.320;21.920;2022-07-17T18:01:52;8.18;;;3.70;;
40367;SDS011;26075;43.320;21.920;2022-07-17T18:06:53;5.00;;;2.30;;
40367;SDS011;26075;43.320;21.920;2022-07-17T18:17:32;5.38;;;2.30;;
40367;SDS011;26075;43.320;21.920;2022-07-17T18:22:33;4.68;;;2.50;;
40367;SDS011;26075;43.320;21.920;2022-07-17T18:27:34;12.77;;;2.72;;
40367;SDS011;26075;43.320;21.920;2022-07-17T18:32:36;8.30;;;2.15;;
40367;SDS011;26075;43.320;21.920;2022-07-17T18:37:37;5.47;;;2.05;;
40367;SDS011;26075;43.320;21.920;2022-07-17T18:48:07;6.05;;;2.10;;
40367;SDS011;26075;43.320;21.920;2022-07-17T18:59:04;7.03;;;2.45;;
40367;SDS011;26075;43.320;21.920;2022-07-17T19:04:09;6.03;;;2.85;;
40367;SDS011;26075;43.320;21.920;2022-07-17T19:09:10;7.57;;;3.22;;
40367;SDS011;26075;43.320;21.920;2022-07-17T19:14:11;5.65;;;3.28;;
40367;SDS011;26075;43.320;21.920;2022-07-17T19:19:12;4.90;;;2.83;;
40367;SDS011;26075;43.320;21.920;2022-07-17T19:24:13;5.97;;;3.00;;
40367;SDS011;26075;43.320;21.920;2022-07-17T19:29:14;6.85;;;2.75;;
40367;SDS011;26075;43.320;21.920;2022-07-17T19:40:12;4.47;;;2.90;;
40367;SDS011;26075;43.320;21.920;2022-07-17T19:45:13;4.65;;;3.15;;
40367;SDS011;26075;43.320;21.920;2022-07-17T19:50:14;5.35;;;3.03;;
40367;SDS011;26075;43.320;21.920;2022-07-17T20:01:13;6.35;;;4.03;;
40367;SDS011;26075;43.320;21.920;2022-07-17T20:06:14;7.43;;;4.07;;
40367;SDS011;26075;43.320;21.920;2022-07-17T20:11:18;7.53;;;3.83;;
40367;SDS011;26075;43.320;21.920;2022-07-17T20:16:23;8.23;;;4.70;;
40367;SDS011;26075;43.320;21.920;2022-07-17T20:21:24;9.05;;;4.60;;
40367;SDS011;26075;43.320;21.920;2022-07-17T20:26:25;7.95;;;4.53;;
40367;SDS011;26075;43.320;21.920;2022-07-17T20:31:32;7.72;;;4.18;;
40367;SDS011;26075;43.320;21.920;2022-07-17T20:36:33;8.05;;;4.60;;
40367;SDS011;26075;43.320;21.920;2022-07-17T20:41:35;10.02;;;4.88;;
40367;SDS011;26075;43.320;21.920;2022-07-17T20:46:36;9.05;;;4.57;;
40367;SDS011;26075;43.320;21.920;2022-07-17T20:51:37;8.57;;;4.50;;
40367;SDS011;26075;43.320;21.920;2022-07-17T20:56:38;6.75;;;4.70;;
40367;SDS011;26075;43.320;21.920;2022-07-17T21:01:39;7.45;;;5.00;;
40367;SDS011;26075;43.320;21.920;2022-07-17T21:12:37;9.85;;;4.88;;
40367;SDS011;26075;43.320;21.920;2022-07-17T21:23:09;8.38;;;5.20;;
40367;SDS011;26075;43.320;21.920;2022-07-17T21:38:40;8.52;;;5.43;;
40367;SDS011;26075;43.320;21.920;2022-07-17T21:49:01;12.73;;;6.00;;
40367;SDS011;26075;43.320;21.920;2022-07-17T21:54:13;8.10;;;5.15;;
40367;SDS011;26075;43.320;21.920;2022-07-17T21:59:14;9.90;;;5.70;;
40367;SDS011;26075;43.320;21.920;2022-07-17T22:04:24;11.57;;;4.95;;
40367;SDS011;26075;43.320;21.920;2022-07-17T22:09:25;9.60;;;4.78;;
40367;SDS011;26075;43.320;21.920;2022-07-17T22:14:26;8.30;;;4.75;;
40367;SDS011;26075;43.320;21.920;2022-07-17T22:19:27;7.63;;;4.25;;
40367;SDS011;26075;43.320;21.920;2022-07-17T22:24:28;8.85;;;3.90;;
40367;SDS011;26075;43.320;21.920;2022-07-17T22:29:30;7.32;;;3.55;;
40367;SDS011;26075;43.320;21.920;2022-07-17T22:40:09;5.72;;;3.58;;
40367;SDS011;26075;43.320;21.920;2022-07-17T22:45:10;5.07;;;2.95;;
40367;SDS011;26075;43.320;21.920;2022-07-17T22:50:11;6.70;;;2.80;;
40367;SDS011;26075;43.320;21.920;2022-07-17T22:55:12;6.53;;;3.40;;
40367;SDS011;26075;43.320;21.920;2022-07-17T23:00:13;7.32;;;3.75;;
40367;SDS011;26075;43.320;21.920;2022-07-17T23:05:15;5.57;;;3.70;;
40367;SDS011;26075;43.320;21.920;2022-07-17T23:10:16;7.97;;;3.92;;
40367;SDS011;26075;43.320;21.920;2022-07-17T23:15:17;6.72;;;3.75;;
40367;SDS011;26075;43.320;21.920;2022-07-17T23:20:18;5.35;;;3.72;;
40367;SDS011;26075;43.320;21.920;2022-07-17T23:31:08;7.47;;;3.35;;
40367;SDS011;26075;43.320;21.920;2022-07-17T23:36:09;4.47;;;2.78;;
40367;SDS011;26075;43.320;21.920;2022-07-17T23:41:11;4.82;;;2.85;;
40367;SDS011;26075;43.320;21.920;2022-07-17T23:52:08;5.15;;;3.10;;
40367;SDS011;26075;43.320;21.920;2022-07-17T23:57:09;6.05;;;3.10;;
